Dawson Community Airport
KGDV : now visible

Airfield :











YOU CAN JOIN US ON...

 
LOGIN :

Register | Disclaimer

   EN    FR    IT 

 









Legend :    VFR   Marginal VFR   IFR   Intensive IFR   Very Intensive IFR
Visi :
Ceiling :
>= 8 km
>= 3000ft
5 to 8 km
1000 to 3000 ft
1500m to 5 km
500 to 1000 ft
800 to 1500m
200 to 500 ft
< 800m
< 200 ft
Symbols :   Thunderstorms  Fog  Heavy snow  Heavy precipitations  Wind > 20 kt






- Airport Elevation : 2458 ft


KGDV - Dawson Community

CURRENT METAR :
  • 282156Z AUTO VRB04KT 10SM CLR 24/05 A3010 RMK AO2 SLP188 T02440050 TSNO

EXPIRED METARs :
  • 282056Z AUTO VRB05KT 10SM CLR 24/06 A3012 RMK AO2 SLP195 T02390056 58017 TSNO
  • 281956Z AUTO 15008KT 10SM CLR 23/06 A3014 RMK AO2 SLP201 T02330061 TSNO
  • 281856Z AUTO 13009KT 10SM CLR 23/07 A3016 RMK AO2 SLP208 T02280067 TSNO
  • 281756Z AUTO VRB04KT 10SM CLR 22/07 A3017 RMK AO2 SLP212 T02220067 10228 20067 58010 TSNO

TAF KGDV
Valid from the 28 at 18:00 until the 29 at 18:00 UTC


281720Z 2818/2918 12007KT P6SM SKC
FM290800 13011KT P6SM SKC WS020/17040KT
FM291500 16015G25KT P6SM FEW120 SCT250
KZLC FIR / North America



MET'MAP, your aeronautical weather chart ! - Copyright ORBIFLY December 2007 - Disclaimer

ORBIFLY MET'MAP TEAM :

Programming & Development : Alexandra Zaïnal
Original concept : Baudouin d'Aumeries
Technical & hardware support : Manuel Goepfert
Assistance : Marc-Olivier Méhu




SOURCES & CREDITS :

   NOAA       Earth
Advisory